Time;durP1;ratioP1;P1;durP2;ratioP2;P2;SDS_P1;SDS_P2;PMS_P1;PMS_P2;Temp;Humidity;BMP_temperature;BMP_pressure;BME280_temperature;BME280_humidity;BME280_pressure;Samples;Min_cycle;Max_cycle;Signal;HPM_P1;HPM_P2
2021/12/27 00:02:19;;;;;;;20.63;5.30;;;;;;;18.80;40.64;100270.88;5031343;28;20685;-75
2021/12/27 00:04:44;;;;;;;27.95;6.32;;;;;;;18.80;40.74;100272.72;5049610;28;20075;-76
2021/12/27 00:07:10;;;;;;;33.38;6.50;;;;;;;18.80;41.25;100267.41;5049386;28;20432;-75
2021/12/27 00:09:36;;;;;;;24.88;5.90;;;;;;;18.81;41.12;100269.09;5049949;28;20083;-75
2021/12/27 00:12:03;;;;;;;25.48;6.57;;;;;;;18.83;41.15;100267.91;5031260;28;20095;-75
2021/12/27 00:14:28;;;;;;;23.52;6.38;;;;;;;18.85;41.20;100262.47;5032453;28;20519;-75
2021/12/27 00:16:54;;;;;;;33.35;8.30;;;;;;;18.85;41.85;100257.16;5049880;28;20116;-74
2021/12/27 00:19:19;;;;;;;30.02;6.95;;;;;;;18.87;42.29;100263.16;5049147;28;20045;-75
2021/12/27 00:21:44;;;;;;;29.50;6.95;;;;;;;18.89;43.47;100255.84;5048653;28;20611;-75
2021/12/27 00:24:10;;;;;;;31.50;6.65;;;;;;;18.92;43.31;100250.22;5048236;28;20041;-75
2021/12/27 00:26:35;;;;;;;22.45;6.28;;;;;;;18.93;43.24;100247.41;5031930;28;20170;-75
2021/12/27 00:29:01;;;;;;;25.15;5.68;;;;;;;18.94;43.24;100249.06;5014936;28;20111;-71
2021/12/27 00:31:26;;;;;;;23.13;5.93;;;;;;;18.92;42.87;100248.38;5031147;28;20033;-75
2021/12/27 00:33:51;;;;;;;25.00;5.93;;;;;;;18.91;42.52;100244.06;5031073;28;20048;-75
2021/12/27 00:36:17;;;;;;;19.63;6.03;;;;;;;18.88;42.76;100225.78;5014317;28;20094;-75
2021/12/27 00:38:42;;;;;;;25.20;6.32;;;;;;;18.86;42.73;100235.72;5031720;28;20041;-75
2021/12/27 00:41:08;;;;;;;19.65;6.15;;;;;;;18.86;42.54;100221.59;5048851;28;20068;-75
2021/12/27 00:43:33;;;;;;;24.52;6.45;;;;;;;18.87;42.94;100225.94;5048880;28;20048;-75
2021/12/27 00:45:58;;;;;;;20.88;5.65;;;;;;;18.87;42.50;100217.97;5031408;28;20749;-75
2021/12/27 00:48:25;;;;;;;20.10;5.50;;;;;;;18.88;42.67;100211.66;5049550;28;20065;-75
2021/12/27 00:50:50;;;;;;;21.13;5.80;;;;;;;18.91;42.43;100217.47;5049409;28;20048;-75
2021/12/27 00:53:15;;;;;;;17.65;5.18;;;;;;;18.89;42.21;100211.47;5048450;28;20045;-75
2021/12/27 00:55:41;;;;;;;24.60;5.70;;;;;;;18.89;42.12;100214.13;5049089;28;20116;-76
2021/12/27 00:58:06;;;;;;;20.48;6.07;;;;;;;18.88;42.29;100216.97;5048542;28;20048;-75
2021/12/27 01:00:32;;;;;;;19.45;5.82;;;;;;;18.88;41.70;100206.34;4998281;28;20570;-76
2021/12/27 01:02:58;;;;;;;22.25;5.47;;;;;;;18.88;41.80;100206.34;5048413;28;20579;-76
2021/12/27 01:05:24;;;;;;;20.48;5.88;;;;;;;18.91;42.39;100206.03;5030452;28;20049;-75
2021/12/27 01:07:49;;;;;;;17.92;5.00;;;;;;;18.92;41.67;100205.03;5030774;28;20041;-76
2021/12/27 01:15:46;;;;;;;17.17;5.18;;;;;;;18.88;42.20;100185.06;5048039;28;20041;-75
2021/12/27 01:18:11;;;;;;;18.65;4.70;;;;;;;18.88;41.69;100174.44;5032867;28;20049;-75
2021/12/27 01:20:37;;;;;;;14.60;5.07;;;;;;;18.87;42.11;100188.75;5030701;28;20103;-75
2021/12/27 01:23:02;;;;;;;18.17;5.78;;;;;;;18.84;42.14;100176.59;5028154;28;20041;-75
2021/12/27 01:25:28;;;;;;;19.38;5.25;;;;;;;18.87;41.79;100189.56;5048527;28;20040;-75
2021/12/27 01:27:53;;;;;;;16.67;5.15;;;;;;;18.89;41.52;100186.72;5048741;28;20481;-75
2021/12/27 01:30:19;;;;;;;16.73;4.55;;;;;;;18.86;41.59;100171.94;5048063;28;20198;-76
2021/12/27 01:32:50;;;;;;;12.95;4.53;;;;;;;18.89;41.64;100181.41;5046834;28;20033;-75
2021/12/27 01:35:16;;;;;;;21.60;5.32;;;;;;;18.87;41.38;100189.56;5029969;28;20378;-76
2021/12/27 01:37:41;;;;;;;15.75;4.50;;;;;;;18.87;41.69;100178.94;5014090;28;20121;-75
2021/12/27 01:40:07;;;;;;;13.27;4.53;;;;;;;18.87;41.58;100186.91;5029924;28;20413;-75
2021/12/27 01:42:33;;;;;;;15.40;4.65;;;;;;;18.88;41.91;100185.06;5026950;28;20041;-75
2021/12/27 01:44:58;;;;;;;11.00;4.10;;;;;;;18.88;41.15;100179.75;5028175;28;20124;-75
2021/12/27 01:47:24;;;;;;;11.50;4.43;;;;;;;18.89;41.36;100182.25;5020965;28;20516;-76
2021/12/27 01:49:49;;;;;;;11.18;3.95;;;;;;;18.90;41.33;100188.41;5028577;28;20068;-75
2021/12/27 01:52:14;;;;;;;15.32;4.32;;;;;;;18.91;41.50;100190.91;5042918;28;20524;-75
2021/12/27 01:54:40;;;;;;;14.20;4.00;;;;;;;18.88;41.56;100185.06;5047468;28;20626;-76
2021/12/27 01:57:05;;;;;;;14.07;4.78;;;;;;;18.89;41.29;100182.25;5030016;28;20029;-76
2021/12/27 01:59:31;;;;;;;11.40;4.38;;;;;;;18.90;41.87;100172.47;5030438;28;20447;-76
2021/12/27 02:01:56;;;;;;;12.55;4.20;;;;;;;18.91;41.21;100179.44;5030422;28;20496;-76
2021/12/27 02:04:22;;;;;;;11.65;4.35;;;;;;;18.89;41.66;100160.97;5028603;28;20378;-76
2021/12/27 02:06:47;;;;;;;10.52;3.83;;;;;;;18.91;41.30;100163.50;5030517;28;20052;-76
2021/12/27 02:09:13;;;;;;;10.32;4.00;;;;;;;18.91;41.26;100163.50;5029756;28;20040;-76
2021/12/27 02:11:38;;;;;;;10.85;4.03;;;;;;;18.93;41.21;100158.88;5048066;28;20497;-76
2021/12/27 02:14:04;;;;;;;12.38;4.25;;;;;;;18.92;41.10;100157.19;5032930;28;20058;-76
2021/12/27 02:16:30;;;;;;;11.50;4.45;;;;;;;18.90;41.77;100165.34;5010360;28;20041;-75
2021/12/27 02:18:55;;;;;;;10.68;4.10;;;;;;;18.89;40.96;100168.97;5010135;28;20041;-75
2021/12/27 02:21:22;;;;;;;10.82;4.18;;;;;;;18.92;41.57;100162.50;5026095;28;20040;-76
2021/12/27 02:23:49;;;;;;;13.15;4.15;;;;;;;18.89;41.42;100154.84;5042204;28;20045;-76
2021/12/27 02:26:15;;;;;;;10.60;3.90;;;;;;;18.91;41.71;100158.19;5029799;28;20044;-75
2021/12/27 02:28:40;;;;;;;10.15;4.13;;;;;;;18.91;41.67;100159.00;5029915;28;20053;-75
2021/12/27 02:31:06;;;;;;;10.27;3.72;;;;;;;18.93;41.69;100156.22;5029287;28;20102;-75
2021/12/27 02:33:31;;;;;;;9.75;3.83;;;;;;;18.93;41.70;100151.72;5019588;28;20495;-75
2021/12/27 02:35:58;;;;;;;10.15;4.05;;;;;;;18.91;41.24;100144.91;5047720;28;20485;-76
2021/12/27 02:38:33;;;;;;;12.88;4.20;;;;;;;18.88;41.20;100142.56;4996578;28;20635;-75
2021/12/27 02:40:58;;;;;;;9.38;3.58;;;;;;;18.88;41.29;100143.38;5047719;28;20512;-75
2021/12/27 02:43:29;;;;;;;8.45;3.72;;;;;;;18.88;41.08;100143.38;5028707;28;20037;-76
2021/12/27 02:46:07;;;;;;;10.90;4.10;;;;;;;18.91;41.88;100136.94;5016057;28;20516;-76
2021/12/27 02:48:36;;;;;;;9.70;4.03;;;;;;;18.90;41.48;100141.41;5035166;28;20033;-75
2021/12/27 02:51:01;;;;;;;10.10;4.13;;;;;;;18.90;41.51;100149.38;5033443;28;20044;-74
2021/12/27 02:53:28;;;;;;;8.10;3.47;;;;;;;18.92;41.28;100149.22;5032944;28;20040;-75
2021/12/27 02:55:54;;;;;;;8.48;3.42;;;;;;;18.89;40.94;100144.22;5033104;28;20043;-75
2021/12/27 02:58:20;;;;;;;9.65;3.78;;;;;;;18.89;40.84;100145.03;5032721;28;20049;-75
2021/12/27 03:01:05;;;;;;;8.75;4.05;;;;;;;18.89;40.82;100149.53;5033511;28;20774;-75
2021/12/27 03:03:31;;;;;;;9.43;3.65;;;;;;;18.90;41.53;100152.03;5049850;28;20037;-75
2021/12/27 03:05:56;;;;;;;8.55;3.58;;;;;;;18.90;41.26;100144.06;5033293;28;20474;-75
2021/12/27 03:08:22;;;;;;;7.53;3.70;;;;;;;18.91;41.61;100143.06;5032655;28;20277;-76
2021/12/27 03:10:49;;;;;;;8.68;4.18;;;;;;;18.93;40.96;100142.94;5033238;28;20512;-76
2021/12/27 03:13:31;;;;;;;8.30;3.90;;;;;;;18.92;41.58;100142.06;5050173;28;20127;-76
2021/12/27 03:16:05;;;;;;;7.20;3.40;;;;;;;18.89;41.49;100131.75;5033063;28;20044;-76
2021/12/27 03:18:32;;;;;;;8.27;3.30;;;;;;;18.93;41.14;100134.94;5033189;28;20037;-75
2021/12/27 03:20:57;;;;;;;8.77;3.70;;;;;;;18.90;41.41;100135.28;5050772;28;20512;-76
2021/12/27 03:23:23;;;;;;;6.90;3.28;;;;;;;18.90;40.73;100128.13;5049754;28;20041;-76
2021/12/27 03:25:48;;;;;;;8.68;3.75;;;;;;;18.91;41.55;100123.63;5032889;28;20052;-76
2021/12/27 03:28:14;;;;;;;8.43;3.55;;;;;;;18.93;41.55;100126.97;5032665;28;20033;-76
2021/12/27 03:30:39;;;;;;;8.25;3.40;;;;;;;18.93;41.54;100124.31;5050863;28;20049;-76
2021/12/27 03:33:05;;;;;;;7.70;3.80;;;;;;;18.93;41.59;100114.53;5030795;28;20044;-75
2021/12/27 03:35:36;;;;;;;7.68;3.20;;;;;;;18.92;41.23;100112.00;5013147;28;20046;-76
2021/12/27 03:38:04;;;;;;;7.00;3.67;;;;;;;18.92;41.10;100107.50;5030270;28;20132;-75
2021/12/27 03:40:29;;;;;;;7.07;3.40;;;;;;;18.92;41.44;100112.00;4996564;28;20420;-76
2021/12/27 03:42:55;;;;;;;7.15;3.20;;;;;;;18.93;41.15;100111.84;5025702;28;20030;-76
2021/12/27 03:45:23;;;;;;;6.68;3.28;;;;;;;18.93;41.20;100114.53;5012088;28;20052;-75
2021/12/27 03:47:49;;;;;;;6.57;3.00;;;;;;;18.93;41.75;100113.69;5013156;28;20037;-76
2021/12/27 03:50:14;;;;;;;5.82;3.22;;;;;;;18.95;41.43;100114.34;5029921;28;20426;-76
2021/12/27 03:52:40;;;;;;;6.30;2.97;;;;;;;18.94;41.00;100112.69;5010273;28;20540;-76
2021/12/27 03:55:06;;;;;;;7.03;3.30;;;;;;;18.94;41.27;100110.03;5024984;28;20049;-76
2021/12/27 03:57:33;;;;;;;6.10;3.20;;;;;;;18.92;40.91;100106.69;5030018;28;20033;-76
2021/12/27 04:00:25;;;;;;;6.53;3.20;;;;;;;18.92;41.00;100101.38;4996712;28;20120;-75
2021/12/27 04:02:51;;;;;;;5.85;2.92;;;;;;;18.91;40.83;100097.06;5029198;28;20045;-75
2021/12/27 04:05:17;;;;;;;5.63;3.30;;;;;;;18.94;40.95;100097.56;4995703;28;20057;-76
2021/12/27 04:07:47;;;;;;;6.20;2.70;;;;;;;18.95;41.52;100090.41;5030033;28;20049;-75
2021/12/27 04:10:13;;;;;;;5.90;2.90;;;;;;;18.97;41.67;100088.44;4996761;28;20042;-76
2021/12/27 04:12:38;;;;;;;6.28;2.83;;;;;;;18.98;41.59;100090.09;5011892;28;20049;-76
2021/12/27 04:15:06;;;;;;;5.38;2.88;;;;;;;18.98;41.53;100079.47;5011731;28;20124;-75
2021/12/27 04:17:32;;;;;;;5.15;2.83;;;;;;;18.99;41.51;100080.28;4995530;28;20053;-76
2021/12/27 04:19:57;;;;;;;7.15;3.00;;;;;;;18.99;41.15;100083.81;5029579;28;20052;-76
2021/12/27 04:22:23;;;;;;;4.93;2.70;;;;;;;19.01;41.18;100086.31;4978738;28;20047;-76
2021/12/27 04:24:48;;;;;;;5.97;2.90;;;;;;;19.00;40.99;100082.81;5011412;28;20556;-77
2021/12/27 04:27:13;;;;;;;5.53;2.85;;;;;;;19.00;41.14;100072.19;5029276;28;20046;-76
2021/12/27 04:29:39;;;;;;;6.57;3.05;;;;;;;18.99;41.67;100064.34;5012263;28;20056;-76
2021/12/27 04:32:04;;;;;;;5.95;3.03;;;;;;;18.97;40.74;100063.69;5029338;28;20755;-76
2021/12/27 04:34:30;;;;;;;5.03;2.65;;;;;;;18.96;41.03;100054.91;4987915;28;20065;-76
2021/12/27 04:36:55;;;;;;;5.57;2.78;;;;;;;18.94;41.47;100052.38;5029505;28;20052;-76
2021/12/27 04:39:21;;;;;;;5.78;3.03;;;;;;;18.94;41.32;100059.53;5046322;28;20041;-76
2021/12/27 04:41:46;;;;;;;5.32;2.72;;;;;;;18.94;40.94;100057.69;5031489;28;20048;-76
2021/12/27 04:44:12;;;;;;;5.53;3.08;;;;;;;18.95;41.63;100055.88;5034461;28;20116;-76
2021/12/27 04:46:37;;;;;;;5.50;2.72;;;;;;;18.96;41.41;100060.22;5029269;28;20060;-75
2021/12/27 04:49:02;;;;;;;5.82;3.10;;;;;;;18.98;40.97;100060.88;5028896;28;20038;-76
2021/12/27 04:51:28;;;;;;;5.45;2.92;;;;;;;19.01;41.71;100059.72;5011408;28;20045;-76
2021/12/27 04:53:53;;;;;;;5.45;2.50;;;;;;;19.00;41.12;100058.06;5010729;28;20068;-75
2021/12/27 04:56:19;;;;;;;5.65;3.22;;;;;;;18.97;41.06;100051.25;5010850;28;20513;-75
2021/12/27 04:58:46;;;;;;;5.60;2.80;;;;;;;18.98;41.66;100042.25;5044504;28;20053;-76
2021/12/27 05:01:12;;;;;;;4.95;2.63;;;;;;;19.00;41.80;100042.13;5028410;28;20052;-76
2021/12/27 05:03:37;;;;;;;5.68;2.70;;;;;;;19.01;40.93;100043.75;5028284;28;20410;-76
2021/12/27 05:06:03;;;;;;;6.15;2.90;;;;;;;19.00;41.23;100034.97;5028720;28;20037;-76
2021/12/27 05:08:28;;;;;;;4.72;2.55;;;;;;;19.00;41.05;100028.81;5010584;28;20072;-76
2021/12/27 05:10:53;;;;;;;4.95;2.63;;;;;;;18.99;41.55;100033.31;5028880;28;20033;-75
2021/12/27 05:13:19;;;;;;;5.30;2.95;;;;;;;18.97;41.52;100035.28;5028412;28;20125;-76
2021/12/27 05:15:47;;;;;;;5.53;2.83;;;;;;;18.94;41.55;100030.28;5048692;28;20037;-75
2021/12/27 05:18:12;;;;;;;5.07;2.70;;;;;;;18.97;41.38;100039.78;5021760;28;20179;-75
2021/12/27 05:20:38;;;;;;;5.72;2.90;;;;;;;18.97;41.05;100035.28;5028325;28;20045;-76
2021/12/27 05:23:04;;;;;;;5.05;2.65;;;;;;;18.96;41.55;100023.00;5026537;28;20802;-76
2021/12/27 05:25:29;;;;;;;4.97;2.53;;;;;;;18.97;41.38;100016.69;5008795;28;20030;-76
2021/12/27 05:27:55;;;;;;;5.25;2.53;;;;;;;19.00;41.57;100019.03;5008768;28;20156;-76
2021/12/27 05:30:20;;;;;;;5.20;2.63;;;;;;;19.00;41.05;100023.50;5008263;28;20077;-75
2021/12/27 05:32:46;;;;;;;5.15;2.78;;;;;;;19.00;41.37;100012.88;5007846;28;20104;-75
2021/12/27 05:35:11;;;;;;;4.07;2.35;;;;;;;19.00;41.05;100011.03;5024764;28;20061;-75
2021/12/27 05:37:37;;;;;;;5.57;2.63;;;;;;;18.98;41.27;100002.38;5048545;28;20040;-76
2021/12/27 05:40:06;;;;;;;5.07;2.70;;;;;;;18.99;41.63;100013.84;5030000;28;20531;-76
2021/12/27 05:42:33;;;;;;;5.38;2.50;;;;;;;18.99;41.63;100014.69;5048407;28;20098;-76
2021/12/27 05:44:58;;;;;;;5.18;3.08;;;;;;;18.99;41.63;100006.72;5047693;28;20076;-76
2021/12/27 05:47:24;;;;;;;5.38;2.83;;;;;;;18.99;41.36;100000.56;5029774;28;20065;-76
2021/12/27 05:49:49;;;;;;;4.90;2.75;;;;;;;18.98;41.08;99999.72;5047941;28;20124;-76
2021/12/27 05:52:15;;;;;;;5.32;2.92;;;;;;;18.95;41.10;100006.19;5029265;28;20519;-76
2021/12/27 05:54:40;;;;;;;5.07;2.83;;;;;;;18.95;41.83;100003.53;5048172;28;20063;-76
2021/12/27 05:57:05;;;;;;;5.63;3.03;;;;;;;18.95;41.24;100010.69;5029974;28;20047;-76
2021/12/27 05:59:31;;;;;;;5.05;3.00;;;;;;;18.92;41.15;100003.03;5048067;28;20520;-76
2021/12/27 06:01:56;;;;;;;5.68;3.05;;;;;;;18.93;41.79;100002.06;5029970;28;20063;-77
2021/12/27 06:04:22;;;;;;;5.07;2.88;;;;;;;18.94;41.17;100004.53;5029740;28;20536;-76
2021/12/27 06:06:47;;;;;;;4.28;2.45;;;;;;;18.98;41.06;100005.03;5047732;28;20477;-76
2021/12/27 06:09:13;;;;;;;4.78;2.85;;;;;;;19.00;41.15;100007.56;5047291;28;20045;-75
2021/12/27 06:11:38;;;;;;;5.65;3.05;;;;;;;18.99;41.37;100005.88;5029749;28;20048;-76
2021/12/27 06:14:03;;;;;;;4.80;2.80;;;;;;;18.98;41.29;100004.22;5047491;28;20053;-75
2021/12/27 06:16:29;;;;;;;5.43;3.13;;;;;;;18.97;41.23;100003.38;5047988;28;20070;-76
2021/12/27 06:18:55;;;;;;;5.47;3.10;;;;;;;18.97;41.10;100003.38;5031456;28;20520;-76
2021/12/27 06:21:20;;;;;;;5.78;2.75;;;;;;;18.95;41.71;100006.19;5033708;28;20099;-76
2021/12/27 06:23:46;;;;;;;5.47;3.30;;;;;;;18.98;41.58;100017.50;5045616;28;20049;-76
2021/12/27 06:26:11;;;;;;;6.20;3.05;;;;;;;18.98;41.49;100009.53;5017442;28;20061;-76
2021/12/27 06:28:38;;;;;;;5.20;3.10;;;;;;;19.01;41.46;100010.03;5051884;28;20137;-76
2021/12/27 06:31:04;;;;;;;5.05;3.00;;;;;;;19.01;40.91;100004.72;5033860;28;20041;-76
2021/12/27 06:33:29;;;;;;;6.05;3.33;;;;;;;18.98;41.40;100010.38;5033195;28;20053;-75
2021/12/27 06:35:55;;;;;;;5.00;2.78;;;;;;;18.98;41.08;100010.38;5033922;28;20059;-76
2021/12/27 06:38:24;;;;;;;6.05;3.22;;;;;;;19.00;41.79;100007.56;5051202;28;20114;-75
2021/12/27 06:40:49;;;;;;;5.00;3.10;;;;;;;18.98;41.42;99999.72;5034095;28;20397;-75
2021/12/27 06:43:15;;;;;;;5.38;3.25;;;;;;;18.99;41.35;100012.03;5032967;28;20051;-75
2021/12/27 06:45:40;;;;;;;4.72;2.88;;;;;;;19.02;41.80;100006.41;5051398;28;20117;-76
2021/12/27 06:48:05;;;;;;;5.50;3.08;;;;;;;19.02;41.23;100009.06;5051066;28;20041;-76
2021/12/27 06:50:31;;;;;;;5.43;3.47;;;;;;;19.01;41.98;100007.38;5051232;28;20120;-76
2021/12/27 06:52:56;;;;;;;5.10;2.92;;;;;;;19.01;41.58;100004.72;5000569;28;20136;-76
2021/12/27 06:55:22;;;;;;;5.28;3.00;;;;;;;19.00;41.16;100004.91;5050973;28;20485;-75
2021/12/27 06:57:49;;;;;;;4.88;3.03;;;;;;;19.01;41.93;100006.56;5033593;28;20052;-76
2021/12/27 07:00:14;;;;;;;5.43;3.45;;;;;;;19.00;41.26;100003.06;5033147;28;20493;-77
2021/12/27 07:02:40;;;;;;;5.25;3.00;;;;;;;19.02;41.27;100005.56;5032505;28;20056;-76
2021/12/27 07:05:06;;;;;;;4.90;3.20;;;;;;;19.01;41.50;100002.06;5012882;28;20497;-76
2021/12/27 07:07:31;;;;;;;6.40;3.25;;;;;;;19.03;41.53;99997.44;5031357;28;20064;-75
2021/12/27 07:09:57;;;;;;;5.13;3.03;;;;;;;19.04;41.40;99998.25;5013448;28;20129;-75
2021/12/27 07:12:22;;;;;;;5.88;3.40;;;;;;;19.03;42.04;99999.25;5035341;28;20451;-74
2021/12/27 07:14:48;;;;;;;5.28;3.08;;;;;;;19.04;42.01;100001.75;5033179;28;20048;-76
2021/12/27 07:17:17;;;;;;;5.20;3.10;;;;;;;19.05;41.61;100003.38;5032842;28;20033;-76
2021/12/27 07:19:42;;;;;;;6.20;2.95;;;;;;;19.04;42.28;100004.41;5050850;28;20041;-76
2021/12/27 07:22:08;;;;;;;5.65;3.13;;;;;;;19.01;42.46;100006.56;5046935;28;20052;-75
2021/12/27 07:24:33;;;;;;;5.38;2.97;;;;;;;19.05;42.53;100008.72;5049964;28;20362;-76
2021/12/27 07:26:59;;;;;;;5.75;2.90;;;;;;;19.09;42.71;100010.06;5050705;28;20067;-77
2021/12/27 07:29:24;;;;;;;4.57;2.60;;;;;;;19.12;42.46;100007.09;5038924;28;20111;-76
2021/12/27 07:31:49;;;;;;;6.78;3.28;;;;;;;19.13;43.21;100006.09;5020164;28;20046;-75
2021/12/27 07:34:17;;;;;;;6.32;3.53;;;;;;;19.15;43.23;100004.09;5035210;28;20048;-75
2021/12/27 07:36:43;;;;;;;7.85;4.10;;;;;;;19.13;43.42;100013.22;5003773;28;20505;-76
2021/12/27 07:39:08;;;;;;;8.73;3.33;;;;;;;19.15;43.55;100011.25;5032871;28;20037;-76
2021/12/27 07:41:34;;;;;;;5.93;3.25;;;;;;;19.16;43.82;100004.94;5043893;28;20040;-75
2021/12/27 07:43:59;;;;;;;5.90;3.00;;;;;;;19.19;43.34;99997.44;5031890;28;20520;-76
2021/12/27 07:46:24;;;;;;;6.18;3.05;;;;;;;19.18;44.00;99990.47;5013411;28;20044;-75
2021/12/27 07:48:50;;;;;;;5.45;3.17;;;;;;;19.21;44.07;99996.44;5036048;28;20398;-76
2021/12/27 07:51:16;;;;;;;6.40;3.40;;;;;;;19.20;43.93;99995.63;5029946;28;20053;-76
2021/12/27 07:53:41;;;;;;;5.47;3.25;;;;;;;19.21;43.32;99996.44;5037714;28;20413;-76
2021/12/27 07:56:07;;;;;;;7.28;3.60;;;;;;;19.18;43.76;99993.16;5030409;28;20124;-77
2021/12/27 07:58:32;;;;;;;7.55;3.40;;;;;;;19.18;43.66;99995.81;5032790;28;20045;-76
2021/12/27 08:00:58;;;;;;;7.72;3.90;;;;;;;19.17;44.48;99998.59;5012207;28;20128;-77
2021/12/27 08:03:23;;;;;;;6.75;3.58;;;;;;;19.21;43.88;100004.44;5023700;28;20452;-76
2021/12/27 08:05:48;;;;;;;7.88;3.20;;;;;;;19.19;44.56;100005.44;5041154;28;20063;-77
2021/12/27 08:08:14;;;;;;;5.90;3.50;;;;;;;19.19;43.71;100002.78;5026356;28;20045;-76
2021/12/27 08:10:40;;;;;;;5.47;3.33;;;;;;;19.21;44.19;100004.44;5017952;28;20041;-76
2021/12/27 08:13:05;;;;;;;6.05;3.40;;;;;;;19.21;44.02;99993.78;5028982;28;20136;-77
2021/12/27 08:15:31;;;;;;;10.73;4.13;;;;;;;19.21;44.40;99988.47;5016997;28;20124;-76
2021/12/27 08:17:56;;;;;;;9.85;3.60;;;;;;;19.22;44.69;99992.81;5030674;28;20402;-75
2021/12/27 08:20:21;;;;;;;6.88;3.40;;;;;;;19.21;44.33;99989.34;5012903;28;20509;-76
2021/12/27 08:22:49;;;;;;;12.48;5.20;;;;;;;19.15;43.95;99988.16;5028719;28;20041;-79
2021/12/27 08:25:17;;;;;;;13.57;4.68;;;;;;;19.14;44.86;99986.47;5028991;28;20049;-77
2021/12/27 08:27:43;;;;;;;10.75;3.42;;;;;;;19.16;44.60;99987.16;5027308;28;20129;-78
2021/12/27 08:30:09;;;;;;;12.35;3.88;;;;;;;19.17;45.03;99986.13;5027493;28;20041;-78
2021/12/27 08:32:34;;;;;;;8.77;3.85;;;;;;;19.16;45.13;99981.81;5013527;28;20045;-77
2021/12/27 08:35:03;;;;;;;11.88;4.15;;;;;;;19.16;45.33;99989.81;5013214;28;20488;-77
2021/12/27 08:37:29;;;;;;;9.48;4.20;;;;;;;19.14;45.83;99978.50;4997465;28;20052;-76
2021/12/27 08:39:54;;;;;;;7.22;4.20;;;;;;;19.13;45.28;99970.69;5014964;28;20041;-79
2021/12/27 08:42:20;;;;;;;9.77;3.85;;;;;;;19.15;45.01;99968.72;5040646;28;20038;-79
2021/12/27 08:44:45;;;;;;;9.05;3.78;;;;;;;19.16;44.98;99967.72;5028707;28;20099;-77
2021/12/27 08:47:12;;;;;;;15.38;4.20;;;;;;;19.17;45.32;99975.50;5040454;28;20073;-75
2021/12/27 08:49:38;;;;;;;9.75;3.67;;;;;;;19.21;45.21;99967.19;5014755;28;20489;-77
2021/12/27 08:52:04;;;;;;;19.67;4.55;;;;;;;19.15;45.31;99964.22;5044748;28;20037;-76
2021/12/27 08:54:30;;;;;;;9.10;3.80;;;;;;;19.13;45.93;99960.88;5042855;28;20063;-77
2021/12/27 08:56:56;;;;;;;10.10;4.20;;;;;;;19.13;45.84;99960.88;5040840;28;20041;-77
2021/12/27 08:59:21;;;;;;;14.18;4.28;;;;;;;19.13;45.26;99965.38;5035173;28;20044;-80
2021/12/27 09:01:47;;;;;;;11.45;3.88;;;;;;;19.13;45.31;99970.69;5024901;28;20041;-77
2021/12/27 09:04:12;;;;;;;19.67;4.20;;;;;;;19.18;45.78;99971.03;5026483;28;20046;-76
2021/12/27 09:06:38;;;;;;;10.55;3.88;;;;;;;19.16;45.49;99979.16;5028040;28;20133;-77
2021/12/27 09:09:03;;;;;;;12.77;4.68;;;;;;;19.14;46.19;99973.16;5027669;28;20061;-75
2021/12/27 09:11:29;;;;;;;13.60;3.63;;;;;;;19.12;45.05;99967.22;5028043;28;20053;-76
2021/12/27 09:13:54;;;;;;;9.45;4.60;;;;;;;19.08;45.88;99968.50;5018150;28;20045;-76
2021/12/27 09:16:20;;;;;;;10.40;3.90;;;;;;;19.06;46.15;99967.88;5028418;28;20258;-76
2021/12/27 09:18:45;;;;;;;9.95;4.15;;;;;;;19.04;46.07;99961.03;5035439;28;20046;-76
2021/12/27 09:21:10;;;;;;;9.93;3.88;;;;;;;19.02;45.63;99955.91;5014389;28;20071;-76
2021/12/27 09:23:36;;;;;;;9.43;4.05;;;;;;;19.01;46.15;99961.38;5019498;28;20071;-76
2021/12/27 09:26:01;;;;;;;11.50;3.80;;;;;;;19.04;45.83;99951.22;5035620;28;20056;-77
2021/12/27 09:28:27;;;;;;;9.93;4.43;;;;;;;19.07;45.93;99953.56;5026893;28;20129;-76
2021/12/27 09:30:52;;;;;;;10.80;4.30;;;;;;;19.00;45.95;99943.75;5027834;28;20033;-76
2021/12/27 09:33:18;;;;;;;11.25;4.55;;;;;;;19.05;45.51;99938.78;5011508;28;20033;-77
2021/12/27 09:35:43;;;;;;;9.95;4.20;;;;;;;19.07;46.04;99929.63;5030119;28;20080;-76
2021/12/27 09:38:09;;;;;;;7.25;3.83;;;;;;;19.12;44.89;99927.34;5024349;28;20504;-79
2021/12/27 09:40:34;;;;;;;11.98;4.07;;;;;;;19.10;45.84;99934.63;5031359;28;20037;-79
2021/12/27 09:43:00;;;;;;;11.98;3.85;;;;;;;19.12;46.14;99943.28;5036999;28;20079;-80
2021/12/27 09:45:25;;;;;;;9.15;3.65;;;;;;;19.14;45.95;99951.91;5023476;28;20041;-79
2021/12/27 09:47:51;;;;;;;9.80;3.85;;;;;;;19.15;45.76;99956.25;5027996;28;20065;-80
2021/12/27 09:50:28;;;;;;;5.78;3.38;;;;;;;19.21;45.53;99959.22;5027363;28;20133;-77
2021/12/27 09:52:54;;;;;;;9.75;3.22;;;;;;;19.24;45.67;99961.56;5035359;28;20390;-76
2021/12/27 09:55:19;;;;;;;8.13;3.65;;;;;;;19.24;45.73;99966.88;5047163;28;20048;-79
2021/12/27 09:57:45;;;;;;;8.60;3.63;;;;;;;19.22;46.02;99971.53;5028641;28;20452;-79
2021/12/27 10:00:11;;;;;;;6.45;3.50;;;;;;;19.22;46.36;99964.38;5046267;28;20526;-80
2021/12/27 10:02:37;;;;;;;7.10;3.63;;;;;;;19.23;46.37;99955.41;5029000;28;20049;-78
2021/12/27 10:05:03;;;;;;;10.93;3.83;;;;;;;19.23;45.57;99947.44;5012288;28;20489;-78
2021/12/27 10:07:28;;;;;;;7.90;3.70;;;;;;;19.24;46.48;99940.28;5027753;28;20524;-69
2021/12/27 10:09:59;;;;;;;9.32;4.50;;;;;;;19.20;45.64;99942.44;5008977;28;20088;-75
2021/12/27 10:12:27;;;;;;;8.95;4.57;;;;;;;19.09;46.08;99932.16;4994765;28;20041;-75
2021/12/27 10:14:56;;;;;;;7.63;4.35;;;;;;;19.07;46.32;99929.63;5028347;28;20065;-75
2021/12/27 10:17:23;;;;;;;8.40;4.18;;;;;;;19.07;46.79;99934.13;5027998;28;20489;-77
2021/12/27 10:19:49;;;;;;;9.75;4.20;;;;;;;19.07;46.12;99924.31;5018543;28;20084;-74
2021/12/27 10:22:14;;;;;;;9.77;4.53;;;;;;;19.02;45.54;99920.50;5011116;28;20046;-74
2021/12/27 10:24:39;;;;;;;8.30;4.53;;;;;;;19.06;45.89;99916.53;5039585;28;20048;-75
2021/12/27 10:27:05;;;;;;;8.48;3.40;;;;;;;19.05;45.62;99905.03;5026993;28;20091;-76
2021/12/27 10:29:32;;;;;;;10.23;5.35;;;;;;;18.92;45.26;99902.03;5027777;28;20049;-77
2021/12/27 10:32:11;;;;;;;8.43;4.93;;;;;;;18.96;46.07;99900.75;5026989;28;20072;-77
2021/12/27 10:34:46;;;;;;;10.52;5.35;;;;;;;18.83;45.55;99892.41;5026631;28;20092;-79
2021/12/27 10:37:21;;;;;;;7.93;4.78;;;;;;;18.94;46.14;99892.09;5027496;28;20121;-80
2021/12/27 10:39:48;;;;;;;8.77;4.40;;;;;;;19.02;45.59;99893.91;5034204;28;20037;-80
2021/12/27 10:42:20;;;;;;;7.25;4.50;;;;;;;19.08;45.61;99896.72;5034916;28;20049;-81
2021/12/27 10:44:45;;;;;;;8.00;4.00;;;;;;;19.13;46.38;99904.22;5027055;28;20041;-78
2021/12/27 10:47:43;;;;;;;6.80;3.70;;;;;;;19.14;46.16;99893.41;5030702;28;20390;-78
2021/12/27 10:50:16;;;;;;;8.23;3.67;;;;;;;19.18;46.27;99910.72;5044005;28;20041;-78
2021/12/27 10:52:41;;;;;;;8.18;4.18;;;;;;;19.16;46.27;99912.69;5040728;28;20134;-80
2021/12/27 10:55:07;;;;;;;8.80;4.00;;;;;;;19.17;46.09;99906.38;5016947;28;20514;-79
2021/12/27 10:57:32;;;;;;;6.90;3.53;;;;;;;19.18;46.09;99894.78;5027598;28;20113;-72
2021/12/27 11:00:19;;;;;;;6.18;3.60;;;;;;;19.16;46.19;99888.78;5033940;28;20041;-79
2021/12/27 11:02:44;;;;;;;7.78;3.95;;;;;;;19.16;46.73;99902.06;5032646;28;20041;-78
2021/12/27 11:05:21;;;;;;;8.63;3.30;;;;;;;19.27;45.24;99908.88;5010286;28;20129;-80
2021/12/27 11:07:46;;;;;;;6.80;3.55;;;;;;;19.26;46.21;99893.91;4996400;28;20033;-72
2021/12/27 11:10:12;;;;;;;8.18;3.92;;;;;;;19.22;46.45;99887.28;5028999;28;20081;-78
2021/12/27 11:12:37;;;;;;;6.78;3.88;;;;;;;19.21;46.01;99895.41;5006225;28;20040;-76
2021/12/27 11:15:03;;;;;;;7.43;4.15;;;;;;;19.09;46.97;99894.94;5011675;28;20042;-77
2021/12/27 11:17:28;;;;;;;7.55;3.70;;;;;;;19.06;46.66;99892.59;5032455;28;20034;-77
2021/12/27 11:19:54;;;;;;;7.50;3.65;;;;;;;19.06;47.09;99887.28;5050596;28;20037;-78
2021/12/27 11:22:20;;;;;;;6.72;3.80;;;;;;;19.10;47.33;99885.94;5032679;28;20508;-78
2021/12/27 11:24:46;;;;;;;6.30;3.38;;;;;;;19.09;46.98;99878.97;5016582;28;20393;-77
2021/12/27 11:27:13;;;;;;;6.15;4.03;;;;;;;19.08;47.25;99883.44;5015448;28;20091;-77